sensor_id;sensor_type;location;lat;lon;timestamp;pressure;altitude;pressure_sealevel;temperature;humidity
28027;BME280;15344;52.342;-1.290;2022-07-10T00:01:13;101589.40;;;19.15;60.60
28027;BME280;15344;52.342;-1.290;2022-07-10T00:03:38;101595.13;;;21.22;56.25
28027;BME280;15344;52.342;-1.290;2022-07-10T00:06:04;101597.67;;;19.84;61.09
28027;BME280;15344;52.342;-1.290;2022-07-10T00:08:28;101593.10;;;20.45;60.31
28027;BME280;15344;52.342;-1.290;2022-07-10T00:10:53;101592.81;;;21.26;59.19
28027;BME280;15344;52.342;-1.290;2022-07-10T00:13:19;101590.12;;;21.16;57.96
28027;BME280;15344;52.342;-1.290;2022-07-10T00:15:44;101588.10;;;21.17;60.10
28027;BME280;15344;52.342;-1.290;2022-07-10T00:18:10;101587.07;;;20.42;58.13
28027;BME280;15344;52.342;-1.290;2022-07-10T00:20:34;101587.23;;;21.38;58.58
28027;BME280;15344;52.342;-1.290;2022-07-10T00:23:00;101585.67;;;20.04;59.09
28027;BME280;15344;52.342;-1.290;2022-07-10T00:25:25;101583.73;;;21.05;58.84
28027;BME280;15344;52.342;-1.290;2022-07-10T00:27:50;101579.50;;;20.26;60.25
28027;BME280;15344;52.342;-1.290;2022-07-10T00:30:15;101577.54;;;20.46;60.04
28027;BME280;15344;52.342;-1.290;2022-07-10T00:32:40;101577.31;;;20.17;60.58
28027;BME280;15344;52.342;-1.290;2022-07-10T00:35:06;101577.03;;;19.83;60.05
28027;BME280;15344;52.342;-1.290;2022-07-10T00:37:30;101577.96;;;20.78;58.90
28027;BME280;15344;52.342;-1.290;2022-07-10T00:39:56;101581.05;;;21.60;57.32
28027;BME280;15344;52.342;-1.290;2022-07-10T00:42:21;101581.13;;;21.67;58.30
28027;BME280;15344;52.342;-1.290;2022-07-10T00:44:46;101579.17;;;21.69;56.76
28027;BME280;15344;52.342;-1.290;2022-07-10T00:47:12;101576.46;;;21.22;59.12
28027;BME280;15344;52.342;-1.290;2022-07-10T00:49:38;101571.02;;;20.19;61.20
28027;BME280;15344;52.342;-1.290;2022-07-10T00:52:05;101570.61;;;21.06;56.30
28027;BME280;15344;52.342;-1.290;2022-07-10T00:54:28;101566.64;;;20.63;60.68
28027;BME280;15344;52.342;-1.290;2022-07-10T00:56:52;101563.68;;;20.53;60.57
28027;BME280;15344;52.342;-1.290;2022-07-10T00:59:18;101559.02;;;20.01;62.84
28027;BME280;15344;52.342;-1.290;2022-07-10T01:01:43;101558.43;;;21.59;57.47
28027;BME280;15344;52.342;-1.290;2022-07-10T01:04:09;101557.08;;;20.15;63.65
28027;BME280;15344;52.342;-1.290;2022-07-10T01:06:34;101555.18;;;21.13;57.95
28027;BME280;15344;52.342;-1.290;2022-07-10T01:09:01;101551.41;;;19.55;63.52
28027;BME280;15344;52.342;-1.290;2022-07-10T01:11:24;101551.39;;;20.63;60.14
28027;BME280;15344;52.342;-1.290;2022-07-10T01:13:49;101553.66;;;20.43;61.25
28027;BME280;15344;52.342;-1.290;2022-07-10T01:16:14;101555.73;;;20.96;59.11
28027;BME280;15344;52.342;-1.290;2022-07-10T01:18:40;101551.12;;;20.85;60.02
28027;BME280;15344;52.342;-1.290;2022-07-10T01:21:06;101551.86;;;20.60;59.44
28027;BME280;15344;52.342;-1.290;2022-07-10T01:23:30;101547.91;;;20.05;62.71
28027;BME280;15344;52.342;-1.290;2022-07-10T01:25:56;101542.38;;;20.49;60.19
28027;BME280;15344;52.342;-1.290;2022-07-10T01:28:21;101548.85;;;19.83;63.33
28027;BME280;15344;52.342;-1.290;2022-07-10T01:30:46;101546.53;;;19.86;65.83
28027;BME280;15344;52.342;-1.290;2022-07-10T01:33:12;101544.27;;;20.61;62.17
28027;BME280;15344;52.342;-1.290;2022-07-10T01:35:37;101541.69;;;18.62;69.69
28027;BME280;15344;52.342;-1.290;2022-07-10T01:38:02;101538.79;;;18.51;68.51
28027;BME280;15344;52.342;-1.290;2022-07-10T01:40:27;101540.43;;;19.83;64.48
28027;BME280;15344;52.342;-1.290;2022-07-10T01:42:52;101542.20;;;20.67;61.89
28027;BME280;15344;52.342;-1.290;2022-07-10T01:45:17;101540.86;;;20.30;62.49
28027;BME280;15344;52.342;-1.290;2022-07-10T01:47:43;101535.51;;;19.05;68.32
28027;BME280;15344;52.342;-1.290;2022-07-10T01:50:09;101536.04;;;18.76;68.25
28027;BME280;15344;52.342;-1.290;2022-07-10T01:52:34;101535.22;;;19.61;64.48
28027;BME280;15344;52.342;-1.290;2022-07-10T01:54:59;101538.08;;;19.73;62.56
28027;BME280;15344;52.342;-1.290;2022-07-10T01:57:24;101537.50;;;19.78;60.74
28027;BME280;15344;52.342;-1.290;2022-07-10T01:59:50;101541.01;;;17.93;71.88
28027;BME280;15344;52.342;-1.290;2022-07-10T02:02:16;101538.91;;;20.49;59.84
28027;BME280;15344;52.342;-1.290;2022-07-10T02:04:41;101533.63;;;20.49;61.19
28027;BME280;15344;52.342;-1.290;2022-07-10T02:07:06;101524.19;;;19.30;63.39
28027;BME280;15344;52.342;-1.290;2022-07-10T02:09:31;101526.35;;;19.75;62.66
28027;BME280;15344;52.342;-1.290;2022-07-10T02:11:57;101526.55;;;19.49;64.84
28027;BME280;15344;52.342;-1.290;2022-07-10T02:14:22;101530.00;;;19.71;64.02
28027;BME280;15344;52.342;-1.290;2022-07-10T02:16:47;101529.23;;;20.20;61.73
28027;BME280;15344;52.342;-1.290;2022-07-10T02:19:12;101524.11;;;19.69;62.59
28027;BME280;15344;52.342;-1.290;2022-07-10T02:21:38;101514.72;;;19.56;64.98
28027;BME280;15344;52.342;-1.290;2022-07-10T02:24:03;101517.92;;;19.67;64.39
28027;BME280;15344;52.342;-1.290;2022-07-10T02:26:29;101517.12;;;18.17;69.70
28027;BME280;15344;52.342;-1.290;2022-07-10T02:28:53;101513.04;;;19.18;63.98
28027;BME280;15344;52.342;-1.290;2022-07-10T02:31:18;101512.52;;;18.90;66.89
28027;BME280;15344;52.342;-1.290;2022-07-10T02:33:44;101507.63;;;18.88;68.67
28027;BME280;15344;52.342;-1.290;2022-07-10T02:36:09;101501.26;;;18.67;66.92
28027;BME280;15344;52.342;-1.290;2022-07-10T02:38:34;101502.35;;;18.43;66.93
28027;BME280;15344;52.342;-1.290;2022-07-10T02:41:00;101500.53;;;18.84;66.29
28027;BME280;15344;52.342;-1.290;2022-07-10T02:43:24;101502.88;;;18.45;69.56
28027;BME280;15344;52.342;-1.290;2022-07-10T02:45:50;101500.12;;;18.90;68.15
28027;BME280;15344;52.342;-1.290;2022-07-10T02:48:15;101494.98;;;19.13;64.88
28027;BME280;15344;52.342;-1.290;2022-07-10T02:50:40;101497.94;;;18.95;67.53
28027;BME280;15344;52.342;-1.290;2022-07-10T02:53:05;101502.94;;;19.48;62.69
28027;BME280;15344;52.342;-1.290;2022-07-10T02:55:31;101504.80;;;18.70;69.47
28027;BME280;15344;52.342;-1.290;2022-07-10T02:57:56;101502.03;;;18.15;70.45
28027;BME280;15344;52.342;-1.290;2022-07-10T03:00:21;101498.66;;;18.75;69.01
28027;BME280;15344;52.342;-1.290;2022-07-10T03:02:46;101503.75;;;18.20;71.26
28027;BME280;15344;52.342;-1.290;2022-07-10T03:05:12;101504.02;;;18.03;71.76
28027;BME280;15344;52.342;-1.290;2022-07-10T03:07:37;101501.54;;;18.56;69.93
28027;BME280;15344;52.342;-1.290;2022-07-10T03:10:02;101499.14;;;19.32;64.53
28027;BME280;15344;52.342;-1.290;2022-07-10T03:12:28;101495.82;;;18.83;67.75
28027;BME280;15344;52.342;-1.290;2022-07-10T03:14:53;101496.28;;;19.64;64.59
28027;BME280;15344;52.342;-1.290;2022-07-10T03:17:18;101498.81;;;18.25;70.20
28027;BME280;15344;52.342;-1.290;2022-07-10T03:19:44;101500.25;;;19.93;64.01
28027;BME280;15344;52.342;-1.290;2022-07-10T03:22:09;101502.97;;;18.06;72.77
28027;BME280;15344;52.342;-1.290;2022-07-10T03:24:34;101506.80;;;17.79;72.97
28027;BME280;15344;52.342;-1.290;2022-07-10T03:27:00;101509.08;;;18.57;68.69
28027;BME280;15344;52.342;-1.290;2022-07-10T03:29:26;101510.42;;;18.27;71.58
28027;BME280;15344;52.342;-1.290;2022-07-10T03:31:51;101507.81;;;19.00;65.75
28027;BME280;15344;52.342;-1.290;2022-07-10T03:34:17;101504.75;;;19.64;64.88
28027;BME280;15344;52.342;-1.290;2022-07-10T03:36:42;101502.76;;;20.09;62.67
28027;BME280;15344;52.342;-1.290;2022-07-10T03:39:07;101499.24;;;19.58;65.17
28027;BME280;15344;52.342;-1.290;2022-07-10T03:41:34;101496.81;;;17.37;74.66
28027;BME280;15344;52.342;-1.290;2022-07-10T03:43:59;101495.72;;;18.92;68.65
28027;BME280;15344;52.342;-1.290;2022-07-10T03:46:23;101492.29;;;19.61;65.25
28027;BME280;15344;52.342;-1.290;2022-07-10T03:48:49;101493.57;;;17.82;74.72
28027;BME280;15344;52.342;-1.290;2022-07-10T03:51:14;101488.11;;;17.88;73.10
28027;BME280;15344;52.342;-1.290;2022-07-10T03:53:39;101483.50;;;18.56;68.04
28027;BME280;15344;52.342;-1.290;2022-07-10T03:56:05;101482.97;;;17.78;67.87
28027;BME280;15344;52.342;-1.290;2022-07-10T03:58:30;101486.44;;;17.36;73.10
28027;BME280;15344;52.342;-1.290;2022-07-10T04:00:55;101487.30;;;18.11;70.93
28027;BME280;15344;52.342;-1.290;2022-07-10T04:03:20;101486.57;;;17.00;74.30
28027;BME280;15344;52.342;-1.290;2022-07-10T04:05:45;101483.73;;;17.69;74.69
28027;BME280;15344;52.342;-1.290;2022-07-10T04:08:11;101479.45;;;16.19;79.24
28027;BME280;15344;52.342;-1.290;2022-07-10T04:10:36;101486.92;;;15.90;82.71
28027;BME280;15344;52.342;-1.290;2022-07-10T04:13:03;101479.80;;;18.19;67.51
28027;BME280;15344;52.342;-1.290;2022-07-10T04:15:28;101477.14;;;18.80;66.32
28027;BME280;15344;52.342;-1.290;2022-07-10T04:17:54;101476.42;;;20.01;61.83
28027;BME280;15344;52.342;-1.290;2022-07-10T04:20:19;101476.25;;;18.79;66.43
28027;BME280;15344;52.342;-1.290;2022-07-10T04:22:44;101479.12;;;17.99;70.33
28027;BME280;15344;52.342;-1.290;2022-07-10T04:25:09;101476.66;;;17.48;74.42
28027;BME280;15344;52.342;-1.290;2022-07-10T04:27:35;101469.68;;;17.34;76.12
28027;BME280;15344;52.342;-1.290;2022-07-10T04:30:00;101470.06;;;17.56;73.76
28027;BME280;15344;52.342;-1.290;2022-07-10T04:32:25;101469.85;;;17.29;77.52
28027;BME280;15344;52.342;-1.290;2022-07-10T04:34:52;101469.24;;;18.95;66.89
28027;BME280;15344;52.342;-1.290;2022-07-10T04:37:16;101476.01;;;17.87;72.85
28027;BME280;15344;52.342;-1.290;2022-07-10T04:39:42;101471.38;;;19.35;65.86
28027;BME280;15344;52.342;-1.290;2022-07-10T04:42:07;101469.86;;;17.08;73.49
28027;BME280;15344;52.342;-1.290;2022-07-10T04:44:32;101471.20;;;18.21;70.99
28027;BME280;15344;52.342;-1.290;2022-07-10T04:46:59;101472.00;;;18.21;70.70
28027;BME280;15344;52.342;-1.290;2022-07-10T04:49:22;101471.21;;;18.94;70.56
28027;BME280;15344;52.342;-1.290;2022-07-10T04:51:48;101472.73;;;17.80;74.38
28027;BME280;15344;52.342;-1.290;2022-07-10T04:54:13;101467.21;;;19.28;69.19
28027;BME280;15344;52.342;-1.290;2022-07-10T04:56:39;101473.94;;;17.10;80.29
28027;BME280;15344;52.342;-1.290;2022-07-10T04:59:05;101473.05;;;17.72;73.93
28027;BME280;15344;52.342;-1.290;2022-07-10T05:01:30;101466.90;;;19.35;66.98
28027;BME280;15344;52.342;-1.290;2022-07-10T05:03:56;101466.31;;;18.67;68.50
28027;BME280;15344;52.342;-1.290;2022-07-10T05:06:20;101463.81;;;18.93;70.00
28027;BME280;15344;52.342;-1.290;2022-07-10T05:08:46;101462.41;;;19.29;68.70
28027;BME280;15344;52.342;-1.290;2022-07-10T05:11:11;101462.89;;;18.40;74.07
28027;BME280;15344;52.342;-1.290;2022-07-10T05:13:36;101462.40;;;19.78;67.41
28027;BME280;15344;52.342;-1.290;2022-07-10T05:16:01;101459.89;;;19.93;67.19
28027;BME280;15344;52.342;-1.290;2022-07-10T05:18:26;101466.45;;;20.18;66.38
28027;BME280;15344;52.342;-1.290;2022-07-10T05:20:52;101466.46;;;20.54;64.80
28027;BME280;15344;52.342;-1.290;2022-07-10T05:23:17;101464.17;;;19.84;67.14
28027;BME280;15344;52.342;-1.290;2022-07-10T05:25:42;101465.06;;;19.90;67.78
28027;BME280;15344;52.342;-1.290;2022-07-10T05:28:08;101469.08;;;19.96;66.49
28027;BME280;15344;52.342;-1.290;2022-07-10T05:30:33;101473.26;;;19.82;68.17
28027;BME280;15344;52.342;-1.290;2022-07-10T05:32:58;101473.06;;;18.94;73.48
28027;BME280;15344;52.342;-1.290;2022-07-10T05:35:24;101476.30;;;19.23;72.54
28027;BME280;15344;52.342;-1.290;2022-07-10T05:37:49;101481.33;;;19.93;69.16
28027;BME280;15344;52.342;-1.290;2022-07-10T05:40:14;101482.95;;;20.05;70.45
28027;BME280;15344;52.342;-1.290;2022-07-10T05:42:39;101483.63;;;20.33;68.52
28027;BME280;15344;52.342;-1.290;2022-07-10T05:45:06;101480.07;;;19.51;70.25
28027;BME280;15344;52.342;-1.290;2022-07-10T05:47:30;101480.21;;;20.16;69.58
28027;BME280;15344;52.342;-1.290;2022-07-10T05:49:56;101479.11;;;19.50;69.99
28027;BME280;15344;52.342;-1.290;2022-07-10T05:52:20;101477.06;;;19.88;69.69
28027;BME280;15344;52.342;-1.290;2022-07-10T05:54:46;101476.21;;;19.62;70.83
28027;BME280;15344;52.342;-1.290;2022-07-10T05:57:12;101468.59;;;18.99;72.21
28027;BME280;15344;52.342;-1.290;2022-07-10T05:59:37;101470.32;;;19.46;71.32
28027;BME280;15344;52.342;-1.290;2022-07-10T06:02:03;101478.33;;;19.66;70.48
28027;BME280;15344;52.342;-1.290;2022-07-10T06:04:28;101472.03;;;18.81;74.86
28027;BME280;15344;52.342;-1.290;2022-07-10T06:06:53;101477.23;;;17.68;79.85
28027;BME280;15344;52.342;-1.290;2022-07-10T06:09:18;101474.27;;;18.47;78.39
28027;BME280;15344;52.342;-1.290;2022-07-10T06:11:46;101475.50;;;19.27;75.87
28027;BME280;15344;52.342;-1.290;2022-07-10T06:14:09;101478.53;;;18.69;77.77
28027;BME280;15344;52.342;-1.290;2022-07-10T06:16:35;101472.91;;;18.99;77.14
28027;BME280;15344;52.342;-1.290;2022-07-10T06:19:00;101472.59;;;18.61;78.77
28027;BME280;15344;52.342;-1.290;2022-07-10T06:21:26;101468.16;;;18.67;78.33
28027;BME280;15344;52.342;-1.290;2022-07-10T06:23:51;101465.20;;;18.54;79.72
28027;BME280;15344;52.342;-1.290;2022-07-10T06:26:16;101465.43;;;18.18;79.81
28027;BME280;15344;52.342;-1.290;2022-07-10T06:28:41;101467.44;;;18.42;80.17
28027;BME280;15344;52.342;-1.290;2022-07-10T06:31:07;101468.60;;;19.91;74.10
28027;BME280;15344;52.342;-1.290;2022-07-10T06:33:33;101468.65;;;20.33;72.48
28027;BME280;15344;52.342;-1.290;2022-07-10T06:35:58;101467.98;;;19.48;73.86
28027;BME280;15344;52.342;-1.290;2022-07-10T06:38:23;101465.06;;;19.98;73.85
28027;BME280;15344;52.342;-1.290;2022-07-10T06:40:48;101462.67;;;18.17;77.15
28027;BME280;15344;52.342;-1.290;2022-07-10T06:43:13;101465.94;;;20.50;71.94
28027;BME280;15344;52.342;-1.290;2022-07-10T06:45:40;101470.33;;;19.40;74.15
28027;BME280;15344;52.342;-1.290;2022-07-10T06:48:04;101467.84;;;19.67;73.25
28027;BME280;15344;52.342;-1.290;2022-07-10T06:50:30;101459.73;;;20.44;72.96
28027;BME280;15344;52.342;-1.290;2022-07-10T06:52:54;101456.59;;;20.01;72.26
28027;BME280;15344;52.342;-1.290;2022-07-10T06:55:20;101449.74;;;23.96;62.32
28027;BME280;15344;52.342;-1.290;2022-07-10T06:57:45;101452.30;;;25.15;57.21
28027;BME280;15344;52.342;-1.290;2022-07-10T07:00:11;101454.10;;;24.62;56.43
28027;BME280;15344;52.342;-1.290;2022-07-10T07:02:35;101452.56;;;26.52;51.71
28027;BME280;15344;52.342;-1.290;2022-07-10T07:05:00;101451.87;;;25.52;52.10
28027;BME280;15344;52.342;-1.290;2022-07-10T07:07:26;101451.73;;;25.52;49.57
28027;BME280;15344;52.342;-1.290;2022-07-10T07:09:52;101449.76;;;26.32;48.01
28027;BME280;15344;52.342;-1.290;2022-07-10T07:12:17;101449.19;;;27.00;46.18
28027;BME280;15344;52.342;-1.290;2022-07-10T07:14:43;101449.64;;;27.49;44.07
28027;BME280;15344;52.342;-1.290;2022-07-10T07:17:09;101450.59;;;28.56;42.39
28027;BME280;15344;52.342;-1.290;2022-07-10T07:19:36;101446.70;;;27.52;41.86
28027;BME280;15344;52.342;-1.290;2022-07-10T07:22:01;101448.29;;;27.99;40.29
28027;BME280;15344;52.342;-1.290;2022-07-10T07:24:27;101452.12;;;27.71;41.95
28027;BME280;15344;52.342;-1.290;2022-07-10T07:26:52;101451.13;;;30.50;38.32
28027;BME280;15344;52.342;-1.290;2022-07-10T07:29:18;101445.28;;;31.84;36.90
28027;BME280;15344;52.342;-1.290;2022-07-10T07:31:44;101439.85;;;30.86;36.53
28027;BME280;15344;52.342;-1.290;2022-07-10T07:34:09;101439.05;;;30.23;37.72
28027;BME280;15344;52.342;-1.290;2022-07-10T07:36:35;101439.72;;;29.95;35.65
28027;BME280;15344;52.342;-1.290;2022-07-10T07:39:01;101435.36;;;29.26;37.96
28027;BME280;15344;52.342;-1.290;2022-07-10T07:41:26;101434.72;;;29.71;37.23
28027;BME280;15344;52.342;-1.290;2022-07-10T07:43:52;101433.00;;;30.05;37.05
28027;BME280;15344;52.342;-1.290;2022-07-10T07:46:17;101432.08;;;30.93;36.76
28027;BME280;15344;52.342;-1.290;2022-07-10T07:48:44;101434.79;;;28.63;38.65
28027;BME280;15344;52.342;-1.290;2022-07-10T07:51:09;101436.57;;;28.43;39.07
28027;BME280;15344;52.342;-1.290;2022-07-10T07:53:35;101438.92;;;28.39;39.22
28027;BME280;15344;52.342;-1.290;2022-07-10T07:56:00;101446.42;;;27.96;39.08
28027;BME280;15344;52.342;-1.290;2022-07-10T07:58:26;101443.19;;;28.68;36.87
28027;BME280;15344;52.342;-1.290;2022-07-10T08:00:51;101445.49;;;31.10;35.95
28027;BME280;15344;52.342;-1.290;2022-07-10T08:03:17;101448.29;;;30.87;36.33
28027;BME280;15344;52.342;-1.290;2022-07-10T08:05:43;101447.05;;;31.27;34.15
28027;BME280;15344;52.342;-1.290;2022-07-10T08:08:08;101453.71;;;32.37;33.37
28027;BME280;15344;52.342;-1.290;2022-07-10T08:10:34;101449.78;;;33.44;33.53
28027;BME280;15344;52.342;-1.290;2022-07-10T08:13:00;101446.24;;;31.26;32.89
28027;BME280;15344;52.342;-1.290;2022-07-10T08:15:25;101446.19;;;31.74;34.93
28027;BME280;15344;52.342;-1.290;2022-07-10T08:17:53;101443.14;;;30.92;34.37
28027;BME280;15344;52.342;-1.290;2022-07-10T08:20:17;101446.44;;;32.55;32.79
28027;BME280;15344;52.342;-1.290;2022-07-10T08:22:42;101441.03;;;33.86;31.50
28027;BME280;15344;52.342;-1.290;2022-07-10T08:25:09;101441.02;;;32.51;31.87
28027;BME280;15344;52.342;-1.290;2022-07-10T08:27:33;101437.89;;;30.85;32.63
28027;BME280;15344;52.342;-1.290;2022-07-10T08:29:59;101439.91;;;31.79;31.90
28027;BME280;15344;52.342;-1.290;2022-07-10T08:32:24;101434.25;;;33.31;32.76
28027;BME280;15344;52.342;-1.290;2022-07-10T08:34:50;101437.33;;;31.27;33.11
28027;BME280;15344;52.342;-1.290;2022-07-10T08:37:16;101434.29;;;32.22;31.47
28027;BME280;15344;52.342;-1.290;2022-07-10T08:39:42;101433.04;;;33.32;31.57
28027;BME280;15344;52.342;-1.290;2022-07-10T08:42:08;101426.86;;;33.81;31.22
28027;BME280;15344;52.342;-1.290;2022-07-10T08:44:33;101423.45;;;34.95;29.86
28027;BME280;15344;52.342;-1.290;2022-07-10T08:46:58;101424.61;;;34.82;29.08
28027;BME280;15344;52.342;-1.290;2022-07-10T08:49:27;101414.92;;;33.50;28.82
28027;BME280;15344;52.342;-1.290;2022-07-10T08:51:57;101414.95;;;35.52;27.70
28027;BME280;15344;52.342;-1.290;2022-07-10T08:54:15;101417.71;;;34.18;30.85
28027;BME280;15344;52.342;-1.290;2022-07-10T08:56:41;101412.71;;;34.27;29.16
28027;BME280;15344;52.342;-1.290;2022-07-10T08:59:08;101412.48;;;33.57;30.48
28027;BME280;15344;52.342;-1.290;2022-07-10T09:01:31;101411.14;;;33.54;29.02
28027;BME280;15344;52.342;-1.290;2022-07-10T09:03:57;101411.25;;;34.73;29.15
28027;BME280;15344;52.342;-1.290;2022-07-10T09:06:22;101411.34;;;35.59;28.38
28027;BME280;15344;52.342;-1.290;2022-07-10T09:09:00;101416.11;;;34.59;30.49
28027;BME280;15344;52.342;-1.290;2022-07-10T09:11:15;101414.29;;;34.38;28.70
28027;BME280;15344;52.342;-1.290;2022-07-10T09:16:05;101417.63;;;33.28;30.64
28027;BME280;15344;52.342;-1.290;2022-07-10T09:18:30;101417.30;;;33.23;31.08
28027;BME280;15344;52.342;-1.290;2022-07-10T09:20:56;101414.84;;;34.40;29.91
28027;BME280;15344;52.342;-1.290;2022-07-10T09:23:22;101416.94;;;33.64;30.07
28027;BME280;15344;52.342;-1.290;2022-07-10T09:25:48;101414.79;;;34.22;30.10
28027;BME280;15344;52.342;-1.290;2022-07-10T09:28:14;101411.77;;;33.91;28.86
28027;BME280;15344;52.342;-1.290;2022-07-10T09:30:39;101406.15;;;35.27;26.84
28027;BME280;15344;52.342;-1.290;2022-07-10T09:35:29;101401.20;;;35.07;28.92
28027;BME280;15344;52.342;-1.290;2022-07-10T09:37:54;101404.78;;;36.15;26.98
28027;BME280;15344;52.342;-1.290;2022-07-10T09:40:21;101398.39;;;35.93;26.48
28027;BME280;15344;52.342;-1.290;2022-07-10T09:42:45;101387.42;;;34.15;28.19
28027;BME280;15344;52.342;-1.290;2022-07-10T09:45:16;101388.56;;;36.34;27.50
28027;BME280;15344;52.342;-1.290;2022-07-10T09:47:37;101385.03;;;35.62;27.10
28027;BME280;15344;52.342;-1.290;2022-07-10T09:50:02;101385.72;;;34.59;27.36
28027;BME280;15344;52.342;-1.290;2022-07-10T09:52:28;101382.85;;;35.47;28.08
28027;BME280;15344;52.342;-1.290;2022-07-10T09:54:53;101375.47;;;34.84;27.38
28027;BME280;15344;52.342;-1.290;2022-07-10T09:57:19;101378.79;;;35.77;26.60
28027;BME280;15344;52.342;-1.290;2022-07-10T09:59:45;101369.98;;;35.31;26.29
28027;BME280;15344;52.342;-1.290;2022-07-10T10:02:10;101371.26;;;35.23;27.89
28027;BME280;15344;52.342;-1.290;2022-07-10T10:04:36;101367.73;;;36.77;25.60
28027;BME280;15344;52.342;-1.290;2022-07-10T10:07:02;101368.04;;;35.48;26.43
28027;BME280;15344;52.342;-1.290;2022-07-10T10:09:29;101364.22;;;35.63;27.09
28027;BME280;15344;52.342;-1.290;2022-07-10T10:11:57;101361.30;;;35.54;27.56
28027;BME280;15344;52.342;-1.290;2022-07-10T10:14:19;101362.02;;;35.38;26.03
28027;BME280;15344;52.342;-1.290;2022-07-10T10:16:44;101363.74;;;36.28;25.87
28027;BME280;15344;52.342;-1.290;2022-07-10T10:19:09;101358.97;;;34.33;27.39
28027;BME280;15344;52.342;-1.290;2022-07-10T10:21:34;101362.96;;;36.08;26.21
28027;BME280;15344;52.342;-1.290;2022-07-10T10:24:01;101359.54;;;34.53;26.64
28027;BME280;15344;52.342;-1.290;2022-07-10T10:26:25;101359.29;;;35.95;25.92
28027;BME280;15344;52.342;-1.290;2022-07-10T10:28:52;101353.39;;;34.94;27.37
28027;BME280;15344;52.342;-1.290;2022-07-10T10:31:16;101356.31;;;35.29;25.78
28027;BME280;15344;52.342;-1.290;2022-07-10T10:33:44;101348.70;;;33.83;27.25
28027;BME280;15344;52.342;-1.290;2022-07-10T10:36:08;101346.99;;;34.81;27.12
28027;BME280;15344;52.342;-1.290;2022-07-10T10:43:24;101344.42;;;36.23;26.76
28027;BME280;15344;52.342;-1.290;2022-07-10T10:45:50;101341.30;;;34.90;27.05
28027;BME280;15344;52.342;-1.290;2022-07-10T10:48:16;101342.61;;;35.94;25.89
28027;BME280;15344;52.342;-1.290;2022-07-10T10:50:42;101342.65;;;34.80;27.59
28027;BME280;15344;52.342;-1.290;2022-07-10T10:53:12;101343.15;;;34.85;26.69
28027;BME280;15344;52.342;-1.290;2022-07-10T10:55:32;101335.54;;;34.45;27.23
28027;BME280;15344;52.342;-1.290;2022-07-10T11:00:30;101334.02;;;33.35;29.20
28027;BME280;15344;52.342;-1.290;2022-07-10T11:02:48;101335.44;;;35.05;26.74
28027;BME280;15344;52.342;-1.290;2022-07-10T11:12:31;101328.35;;;35.36;28.64
28027;BME280;15344;52.342;-1.290;2022-07-10T11:14:57;101325.13;;;34.39;26.89
28027;BME280;15344;52.342;-1.290;2022-07-10T11:17:27;101321.47;;;34.58;26.76
28027;BME280;15344;52.342;-1.290;2022-07-10T11:19:48;101323.15;;;34.31;28.31
28027;BME280;15344;52.342;-1.290;2022-07-10T11:22:25;101321.27;;;33.57;28.18
28027;BME280;15344;52.342;-1.290;2022-07-10T11:24:49;101321.91;;;33.48;27.28
28027;BME280;15344;52.342;-1.290;2022-07-10T11:27:19;101314.80;;;31.53;28.12
28027;BME280;15344;52.342;-1.290;2022-07-10T11:29:36;101315.88;;;34.44;27.42
28027;BME280;15344;52.342;-1.290;2022-07-10T11:31:55;101313.31;;;33.28;27.86
28027;BME280;15344;52.342;-1.290;2022-07-10T11:34:22;101312.15;;;33.36;29.41
28027;BME280;15344;52.342;-1.290;2022-07-10T11:36:47;101310.04;;;33.12;29.72
28027;BME280;15344;52.342;-1.290;2022-07-10T11:39:14;101311.16;;;34.03;28.24
28027;BME280;15344;52.342;-1.290;2022-07-10T11:41:43;101308.79;;;33.78;27.91
28027;BME280;15344;52.342;-1.290;2022-07-10T11:44:04;101313.70;;;33.74;27.04
28027;BME280;15344;52.342;-1.290;2022-07-10T11:46:30;101309.29;;;33.48;27.64
28027;BME280;15344;52.342;-1.290;2022-07-10T11:48:57;101311.33;;;32.88;28.27
28027;BME280;15344;52.342;-1.290;2022-07-10T11:51:23;101305.85;;;32.48;29.98
28027;BME280;15344;52.342;-1.290;2022-07-10T11:53:53;101304.07;;;32.21;28.67
28027;BME280;15344;52.342;-1.290;2022-07-10T11:56:18;101304.51;;;33.29;28.09
28027;BME280;15344;52.342;-1.290;2022-07-10T11:58:38;101300.85;;;31.78;27.58
28027;BME280;15344;52.342;-1.290;2022-07-10T12:01:04;101297.96;;;31.96;28.80
28027;BME280;15344;52.342;-1.290;2022-07-10T12:03:29;101297.95;;;33.23;28.41
28027;BME280;15344;52.342;-1.290;2022-07-10T12:05:55;101298.32;;;34.25;28.10
28027;BME280;15344;52.342;-1.290;2022-07-10T12:08:20;101291.89;;;34.34;27.12
28027;BME280;15344;52.342;-1.290;2022-07-10T12:10:46;101291.54;;;32.64;28.12
28027;BME280;15344;52.342;-1.290;2022-07-10T12:13:13;101293.87;;;33.30;27.42
28027;BME280;15344;52.342;-1.290;2022-07-10T12:15:39;101292.00;;;33.34;28.10
28027;BME280;15344;52.342;-1.290;2022-07-10T12:18:04;101287.67;;;33.91;27.48
28027;BME280;15344;52.342;-1.290;2022-07-10T12:20:29;101288.14;;;33.21;28.16
28027;BME280;15344;52.342;-1.290;2022-07-10T12:22:54;101288.70;;;33.58;26.66
28027;BME280;15344;52.342;-1.290;2022-07-10T12:25:21;101283.12;;;34.60;24.41
28027;BME280;15344;52.342;-1.290;2022-07-10T12:27:46;101287.77;;;34.39;25.94
28027;BME280;15344;52.342;-1.290;2022-07-10T12:30:12;101285.44;;;33.08;26.08
28027;BME280;15344;52.342;-1.290;2022-07-10T12:32:37;101283.83;;;31.56;26.55
28027;BME280;15344;52.342;-1.290;2022-07-10T12:35:04;101280.00;;;32.84;27.49
28027;BME280;15344;52.342;-1.290;2022-07-10T12:37:28;101274.99;;;32.90;28.45
28027;BME280;15344;52.342;-1.290;2022-07-10T12:39:54;101271.77;;;33.73;27.11
28027;BME280;15344;52.342;-1.290;2022-07-10T12:42:25;101267.19;;;33.04;26.60
28027;BME280;15344;52.342;-1.290;2022-07-10T12:44:46;101262.14;;;32.85;28.47
28027;BME280;15344;52.342;-1.290;2022-07-10T12:47:14;101261.35;;;32.34;29.31
28027;BME280;15344;52.342;-1.290;2022-07-10T12:52:03;101259.69;;;33.25;26.87